sensor_id;sensor_type;location;lat;lon;timestamp;P1;durP1;ratioP1;P2;durP2;ratioP2
76196;SDS011;64974;53.144;17.962;2024-01-16T00:08:13;0.40;;;0.40;;
76196;SDS011;64974;53.144;17.962;2024-01-16T00:10:43;2.53;;;0.50;;
76196;SDS011;64974;53.144;17.962;2024-01-16T00:25:10;1.23;;;0.55;;
76196;SDS011;64974;53.144;17.962;2024-01-16T03:23:51;1.55;;;0.65;;
76196;SDS011;64974;53.144;17.962;2024-01-16T05:15:58;5.55;;;1.40;;
76196;SDS011;64974;53.144;17.962;2024-01-16T05:18:33;2.95;;;1.92;;
76196;SDS011;64974;53.144;17.962;2024-01-16T05:30:42;7.47;;;1.88;;
76196;SDS011;64974;53.144;17.962;2024-01-16T05:33:34;3.65;;;2.08;;
76196;SDS011;64974;53.144;17.962;2024-01-16T05:59:11;4.20;;;0.73;;
76196;SDS011;64974;53.144;17.962;2024-01-16T06:04:22;5.45;;;1.60;;
76196;SDS011;64974;53.144;17.962;2024-01-16T06:06:53;3.63;;;1.33;;
76196;SDS011;64974;53.144;17.962;2024-01-16T06:09:49;2.40;;;1.27;;
76196;SDS011;64974;53.144;17.962;2024-01-16T06:12:41;10.98;;;2.88;;
76196;SDS011;64974;53.144;17.962;2024-01-16T06:15:25;3.55;;;1.95;;
76196;SDS011;64974;53.144;17.962;2024-01-16T06:18:05;6.95;;;2.97;;
76196;SDS011;64974;53.144;17.962;2024-01-16T06:20:46;6.65;;;2.30;;
76196;SDS011;64974;53.144;17.962;2024-01-16T06:23:26;3.53;;;1.67;;
76196;SDS011;64974;53.144;17.962;2024-01-16T06:25:55;5.72;;;2.60;;
76196;SDS011;64974;53.144;17.962;2024-01-16T06:28:48;4.07;;;1.73;;
76196;SDS011;64974;53.144;17.962;2024-01-16T06:31:28;8.05;;;1.92;;
76196;SDS011;64974;53.144;17.962;2024-01-16T06:33:57;7.82;;;2.72;;
76196;SDS011;64974;53.144;17.962;2024-01-16T06:36:27;4.07;;;2.22;;
76196;SDS011;64974;53.144;17.962;2024-01-16T06:42:49;4.85;;;1.85;;
76196;SDS011;64974;53.144;17.962;2024-01-16T06:45:26;5.88;;;2.65;;
76196;SDS011;64974;53.144;17.962;2024-01-16T06:47:52;7.10;;;2.95;;
76196;SDS011;64974;53.144;17.962;2024-01-16T06:50:26;7.93;;;2.72;;
76196;SDS011;64974;53.144;17.962;2024-01-16T06:55:20;11.73;;;3.85;;
76196;SDS011;64974;53.144;17.962;2024-01-16T06:57:49;10.30;;;3.70;;
76196;SDS011;64974;53.144;17.962;2024-01-16T07:00:16;15.55;;;5.18;;
76196;SDS011;64974;53.144;17.962;2024-01-16T07:02:43;16.65;;;5.47;;
76196;SDS011;64974;53.144;17.962;2024-01-16T07:05:09;12.18;;;5.65;;
76196;SDS011;64974;53.144;17.962;2024-01-16T07:07:37;7.93;;;3.22;;
76196;SDS011;64974;53.144;17.962;2024-01-16T07:10:09;10.80;;;5.10;;
76196;SDS011;64974;53.144;17.962;2024-01-16T07:12:43;4.47;;;2.63;;
76196;SDS011;64974;53.144;17.962;2024-01-16T07:15:11;4.68;;;2.10;;
76196;SDS011;64974;53.144;17.962;2024-01-16T07:17:47;6.63;;;2.60;;
76196;SDS011;64974;53.144;17.962;2024-01-16T07:20:14;6.97;;;1.92;;
76196;SDS011;64974;53.144;17.962;2024-01-16T07:22:39;8.93;;;2.55;;
76196;SDS011;64974;53.144;17.962;2024-01-16T07:25:06;11.10;;;3.25;;
76196;SDS011;64974;53.144;17.962;2024-01-16T07:27:40;10.40;;;3.72;;
76196;SDS011;64974;53.144;17.962;2024-01-16T07:30:22;5.70;;;2.03;;
76196;SDS011;64974;53.144;17.962;2024-01-16T07:32:49;15.70;;;5.60;;
76196;SDS011;64974;53.144;17.962;2024-01-16T07:38:10;4.22;;;2.30;;
76196;SDS011;64974;53.144;17.962;2024-01-16T07:50:36;8.65;;;4.40;;
76196;SDS011;64974;53.144;17.962;2024-01-16T07:53:02;9.77;;;3.90;;
76196;SDS011;64974;53.144;17.962;2024-01-16T07:55:32;7.80;;;3.75;;
76196;SDS011;64974;53.144;17.962;2024-01-16T08:01:27;8.00;;;3.67;;
76196;SDS011;64974;53.144;17.962;2024-01-16T08:04:09;8.52;;;3.40;;
76196;SDS011;64974;53.144;17.962;2024-01-16T08:06:40;6.60;;;2.95;;
76196;SDS011;64974;53.144;17.962;2024-01-16T08:11:58;11.68;;;3.03;;
76196;SDS011;64974;53.144;17.962;2024-01-16T08:14:26;6.75;;;2.88;;
76196;SDS011;64974;53.144;17.962;2024-01-16T08:17:03;7.00;;;2.50;;
76196;SDS011;64974;53.144;17.962;2024-01-16T08:19:30;8.30;;;2.92;;
76196;SDS011;64974;53.144;17.962;2024-01-16T08:21:59;7.53;;;2.30;;
76196;SDS011;64974;53.144;17.962;2024-01-16T08:25:30;6.53;;;3.33;;
76196;SDS011;64974;53.144;17.962;2024-01-16T08:27:59;8.35;;;3.03;;
76196;SDS011;64974;53.144;17.962;2024-01-16T08:30:32;4.10;;;2.17;;
76196;SDS011;64974;53.144;17.962;2024-01-16T08:32:58;6.82;;;2.78;;
76196;SDS011;64974;53.144;17.962;2024-01-16T08:35:25;9.93;;;3.78;;
76196;SDS011;64974;53.144;17.962;2024-01-16T08:41:10;7.88;;;2.92;;
76196;SDS011;64974;53.144;17.962;2024-01-16T08:43:50;8.57;;;3.45;;
76196;SDS011;64974;53.144;17.962;2024-01-16T08:46:18;12.43;;;4.25;;
76196;SDS011;64974;53.144;17.962;2024-01-16T08:48:52;7.75;;;2.95;;
76196;SDS011;64974;53.144;17.962;2024-01-16T08:57:36;6.88;;;2.90;;
76196;SDS011;64974;53.144;17.962;2024-01-16T09:00:06;7.32;;;3.30;;
76196;SDS011;64974;53.144;17.962;2024-01-16T09:02:43;5.07;;;2.47;;
76196;SDS011;64974;53.144;17.962;2024-01-16T09:05:15;4.63;;;2.42;;
76196;SDS011;64974;53.144;17.962;2024-01-16T09:07:50;7.03;;;2.00;;
76196;SDS011;64974;53.144;17.962;2024-01-16T09:13:07;5.90;;;2.15;;
76196;SDS011;64974;53.144;17.962;2024-01-16T09:15:36;12.85;;;10.43;;
76196;SDS011;64974;53.144;17.962;2024-01-16T09:18:19;7.28;;;2.58;;
76196;SDS011;64974;53.144;17.962;2024-01-16T09:21:09;5.53;;;3.00;;
76196;SDS011;64974;53.144;17.962;2024-01-16T09:26:58;7.28;;;2.60;;
76196;SDS011;64974;53.144;17.962;2024-01-16T09:29:38;10.88;;;3.45;;
76196;SDS011;64974;53.144;17.962;2024-01-16T09:35:01;4.88;;;2.22;;
76196;SDS011;64974;53.144;17.962;2024-01-16T09:41:00;5.68;;;2.08;;
76196;SDS011;64974;53.144;17.962;2024-01-16T09:43:41;4.60;;;2.22;;
76196;SDS011;64974;53.144;17.962;2024-01-16T09:46:29;4.63;;;1.95;;
76196;SDS011;64974;53.144;17.962;2024-01-16T09:51:35;8.68;;;2.65;;
76196;SDS011;64974;53.144;17.962;2024-01-16T09:52:40;6.88;;;2.60;;
76196;SDS011;64974;53.144;17.962;2024-01-16T09:55:21;8.23;;;2.13;;
76196;SDS011;64974;53.144;17.962;2024-01-16T09:57:49;5.63;;;2.88;;
76196;SDS011;64974;53.144;17.962;2024-01-16T10:00:46;9.10;;;2.83;;
76196;SDS011;64974;53.144;17.962;2024-01-16T10:05:41;4.85;;;2.35;;
76196;SDS011;64974;53.144;17.962;2024-01-16T10:08:22;4.72;;;1.77;;
76196;SDS011;64974;53.144;17.962;2024-01-16T10:12:18;10.30;;;4.25;;
76196;SDS011;64974;53.144;17.962;2024-01-16T10:14:47;8.65;;;3.15;;
76196;SDS011;64974;53.144;17.962;2024-01-16T10:17:50;6.68;;;3.60;;
76196;SDS011;64974;53.144;17.962;2024-01-16T10:23:29;8.75;;;2.63;;
76196;SDS011;64974;53.144;17.962;2024-01-16T10:26:33;7.03;;;2.55;;
76196;SDS011;64974;53.144;17.962;2024-01-16T10:36:33;3.35;;;1.60;;
76196;SDS011;64974;53.144;17.962;2024-01-16T10:49:04;5.72;;;1.85;;
76196;SDS011;64974;53.144;17.962;2024-01-16T10:55:28;5.70;;;2.00;;
76196;SDS011;64974;53.144;17.962;2024-01-16T10:58:23;4.18;;;1.45;;
76196;SDS011;64974;53.144;17.962;2024-01-16T11:01:01;2.65;;;1.50;;
76196;SDS011;64974;53.144;17.962;2024-01-16T11:04:21;5.93;;;2.70;;
76196;SDS011;64974;53.144;17.962;2024-01-16T11:07:19;5.10;;;1.83;;
76196;SDS011;64974;53.144;17.962;2024-01-16T11:09:59;7.60;;;2.58;;
76196;SDS011;64974;53.144;17.962;2024-01-16T11:13:13;3.17;;;1.27;;
76196;SDS011;64974;53.144;17.962;2024-01-16T11:16:11;3.75;;;1.67;;
76196;SDS011;64974;53.144;17.962;2024-01-16T11:20:20;7.43;;;2.50;;
76196;SDS011;64974;53.144;17.962;2024-01-16T11:28:16;3.35;;;1.42;;
76196;SDS011;64974;53.144;17.962;2024-01-16T11:30:47;3.47;;;1.38;;
76196;SDS011;64974;53.144;17.962;2024-01-16T11:37:07;5.20;;;2.13;;
76196;SDS011;64974;53.144;17.962;2024-01-16T11:40:24;5.32;;;2.05;;
76196;SDS011;64974;53.144;17.962;2024-01-16T11:42:53;5.68;;;2.33;;
76196;SDS011;64974;53.144;17.962;2024-01-16T11:48:51;3.60;;;1.75;;
76196;SDS011;64974;53.144;17.962;2024-01-16T11:55:51;4.68;;;1.55;;
76196;SDS011;64974;53.144;17.962;2024-01-16T11:59:54;6.82;;;2.75;;
76196;SDS011;64974;53.144;17.962;2024-01-16T12:02:26;5.35;;;2.33;;
76196;SDS011;64974;53.144;17.962;2024-01-16T12:05:49;5.85;;;2.28;;
76196;SDS011;64974;53.144;17.962;2024-01-16T12:08:37;3.42;;;1.45;;
76196;SDS011;64974;53.144;17.962;2024-01-16T12:17:52;6.97;;;2.33;;
76196;SDS011;64974;53.144;17.962;2024-01-16T12:27:18;4.15;;;1.45;;
76196;SDS011;64974;53.144;17.962;2024-01-16T12:39:12;4.28;;;2.17;;
76196;SDS011;64974;53.144;17.962;2024-01-16T12:48:37;4.28;;;2.03;;
76196;SDS011;64974;53.144;17.962;2024-01-16T12:51:07;4.78;;;1.58;;
76196;SDS011;64974;53.144;17.962;2024-01-16T12:54:12;6.20;;;2.17;;
76196;SDS011;64974;53.144;17.962;2024-01-16T13:01:20;4.28;;;2.40;;
76196;SDS011;64974;53.144;17.962;2024-01-16T13:03:49;3.08;;;1.45;;
76196;SDS011;64974;53.144;17.962;2024-01-16T13:06:26;5.90;;;1.58;;
76196;SDS011;64974;53.144;17.962;2024-01-16T13:09:08;4.47;;;1.90;;
76196;SDS011;64974;53.144;17.962;2024-01-16T13:11:53;4.07;;;1.52;;
76196;SDS011;64974;53.144;17.962;2024-01-16T13:14:20;5.85;;;2.20;;
76196;SDS011;64974;53.144;17.962;2024-01-16T13:17:01;4.38;;;1.70;;
76196;SDS011;64974;53.144;17.962;2024-01-16T13:19:36;3.80;;;1.38;;
76196;SDS011;64974;53.144;17.962;2024-01-16T13:22:03;3.10;;;1.20;;
76196;SDS011;64974;53.144;17.962;2024-01-16T13:28:27;6.55;;;1.52;;
76196;SDS011;64974;53.144;17.962;2024-01-16T13:34:03;5.90;;;1.70;;
76196;SDS011;64974;53.144;17.962;2024-01-16T13:37:02;7.38;;;2.78;;
76196;SDS011;64974;53.144;17.962;2024-01-16T13:39:39;3.45;;;1.67;;
76196;SDS011;64974;53.144;17.962;2024-01-16T13:42:05;6.85;;;2.42;;
76196;SDS011;64974;53.144;17.962;2024-01-16T13:44:44;14.10;;;3.40;;
76196;SDS011;64974;53.144;17.962;2024-01-16T13:47:37;10.65;;;3.97;;
76196;SDS011;64974;53.144;17.962;2024-01-16T13:50:14;9.50;;;3.35;;
76196;SDS011;64974;53.144;17.962;2024-01-16T13:52:50;17.48;;;3.97;;
76196;SDS011;64974;53.144;17.962;2024-01-16T13:55:30;23.70;;;5.47;;
76196;SDS011;64974;53.144;17.962;2024-01-16T13:58:01;20.83;;;4.80;;
76196;SDS011;64974;53.144;17.962;2024-01-16T14:00:27;20.50;;;6.70;;
76196;SDS011;64974;53.144;17.962;2024-01-16T14:03:18;49.42;;;14.27;;
76196;SDS011;64974;53.144;17.962;2024-01-16T14:05:47;46.72;;;13.32;;
76196;SDS011;64974;53.144;17.962;2024-01-16T14:14:36;38.85;;;12.70;;
76196;SDS011;64974;53.144;17.962;2024-01-16T14:17:04;65.47;;;18.73;;
76196;SDS011;64974;53.144;17.962;2024-01-16T14:19:39;90.85;;;25.05;;
76196;SDS011;64974;53.144;17.962;2024-01-16T14:25:36;25.75;;;8.75;;
76196;SDS011;64974;53.144;17.962;2024-01-16T14:28:06;49.40;;;13.68;;
76196;SDS011;64974;53.144;17.962;2024-01-16T14:30:47;33.95;;;10.80;;
76196;SDS011;64974;53.144;17.962;2024-01-16T14:37:14;19.63;;;6.97;;
76196;SDS011;64974;53.144;17.962;2024-01-16T14:39:50;15.88;;;6.22;;
76196;SDS011;64974;53.144;17.962;2024-01-16T14:42:29;49.47;;;14.07;;
76196;SDS011;64974;53.144;17.962;2024-01-16T14:58:59;22.70;;;8.05;;
76196;SDS011;64974;53.144;17.962;2024-01-16T15:07:21;40.08;;;14.52;;
76196;SDS011;64974;53.144;17.962;2024-01-16T15:13:07;36.08;;;13.32;;
76196;SDS011;64974;53.144;17.962;2024-01-16T15:18:50;32.90;;;12.77;;
76196;SDS011;64974;53.144;17.962;2024-01-16T15:21:34;37.20;;;13.18;;
76196;SDS011;64974;53.144;17.962;2024-01-16T15:24:01;35.42;;;11.85;;
76196;SDS011;64974;53.144;17.962;2024-01-16T15:49:45;106.82;;;30.88;;
76196;SDS011;64974;53.144;17.962;2024-01-16T15:52:12;83.43;;;28.30;;
76196;SDS011;64974;53.144;17.962;2024-01-16T15:54:39;94.05;;;29.48;;
76196;SDS011;64974;53.144;17.962;2024-01-16T15:57:05;87.28;;;30.00;;
76196;SDS011;64974;53.144;17.962;2024-01-16T15:59:32;89.85;;;31.35;;
76196;SDS011;64974;53.144;17.962;2024-01-16T16:01:58;112.95;;;34.90;;
76196;SDS011;64974;53.144;17.962;2024-01-16T16:04:25;104.00;;;33.78;;
76196;SDS011;64974;53.144;17.962;2024-01-16T16:06:53;81.45;;;31.38;;
76196;SDS011;64974;53.144;17.962;2024-01-16T16:09:19;82.38;;;29.13;;
76196;SDS011;64974;53.144;17.962;2024-01-16T16:11:47;82.68;;;29.77;;
76196;SDS011;64974;53.144;17.962;2024-01-16T16:14:26;95.03;;;30.85;;
76196;SDS011;64974;53.144;17.962;2024-01-16T16:17:03;92.68;;;29.55;;
76196;SDS011;64974;53.144;17.962;2024-01-16T16:19:42;98.60;;;32.10;;
76196;SDS011;64974;53.144;17.962;2024-01-16T16:22:15;117.03;;;35.85;;
76196;SDS011;64974;53.144;17.962;2024-01-16T16:24:57;122.18;;;35.83;;
76196;SDS011;64974;53.144;17.962;2024-01-16T16:27:24;112.68;;;34.75;;
76196;SDS011;64974;53.144;17.962;2024-01-16T16:30:21;115.75;;;34.25;;
76196;SDS011;64974;53.144;17.962;2024-01-16T16:32:54;180.48;;;45.53;;
76196;SDS011;64974;53.144;17.962;2024-01-16T16:38:24;186.02;;;51.38;;
76196;SDS011;64974;53.144;17.962;2024-01-16T16:40:51;154.88;;;40.60;;
76196;SDS011;64974;53.144;17.962;2024-01-16T16:43:27;142.50;;;43.15;;
76196;SDS011;64974;53.144;17.962;2024-01-16T16:45:59;141.85;;;40.45;;
76196;SDS011;64974;53.144;17.962;2024-01-16T16:48:34;169.75;;;44.70;;
76196;SDS011;64974;53.144;17.962;2024-01-16T16:51:15;151.02;;;43.65;;
76196;SDS011;64974;53.144;17.962;2024-01-16T16:53:44;122.57;;;40.78;;
76196;SDS011;64974;53.144;17.962;2024-01-16T16:56:11;127.45;;;39.08;;
76196;SDS011;64974;53.144;17.962;2024-01-16T17:01:11;101.50;;;35.55;;
76196;SDS011;64974;53.144;17.962;2024-01-16T17:03:43;105.97;;;35.97;;
76196;SDS011;64974;53.144;17.962;2024-01-16T17:06:11;137.07;;;44.05;;
76196;SDS011;64974;53.144;17.962;2024-01-16T17:08:39;130.57;;;42.13;;
76196;SDS011;64974;53.144;17.962;2024-01-16T17:14:05;94.00;;;32.90;;
76196;SDS011;64974;53.144;17.962;2024-01-16T17:16:44;83.43;;;29.98;;
76196;SDS011;64974;53.144;17.962;2024-01-16T17:19:28;121.10;;;42.42;;
76196;SDS011;64974;53.144;17.962;2024-01-16T17:22:08;135.35;;;46.28;;
76196;SDS011;64974;53.144;17.962;2024-01-16T17:24:35;109.13;;;34.33;;
76196;SDS011;64974;53.144;17.962;2024-01-16T17:27:12;110.25;;;34.72;;
76196;SDS011;64974;53.144;17.962;2024-01-16T17:29:53;89.20;;;28.65;;
76196;SDS011;64974;53.144;17.962;2024-01-16T17:32:19;81.90;;;27.38;;
76196;SDS011;64974;53.144;17.962;2024-01-16T17:42:54;70.38;;;22.42;;
76196;SDS011;64974;53.144;17.962;2024-01-16T17:45:28;92.60;;;29.15;;
76196;SDS011;64974;53.144;17.962;2024-01-16T17:50:50;94.82;;;33.78;;
76196;SDS011;64974;53.144;17.962;2024-01-16T17:53:17;97.97;;;35.80;;
76196;SDS011;64974;53.144;17.962;2024-01-16T17:55:44;113.57;;;38.28;;
76196;SDS011;64974;53.144;17.962;2024-01-16T17:58:37;110.38;;;39.05;;
76196;SDS011;64974;53.144;17.962;2024-01-16T18:01:07;110.85;;;36.00;;
76196;SDS011;64974;53.144;17.962;2024-01-16T18:03:50;106.25;;;37.00;;
76196;SDS011;64974;53.144;17.962;2024-01-16T18:06:52;127.43;;;42.55;;
76196;SDS011;64974;53.144;17.962;2024-01-16T18:12:45;138.65;;;47.45;;
76196;SDS011;64974;53.144;17.962;2024-01-16T18:15:15;117.90;;;41.53;;
76196;SDS011;64974;53.144;17.962;2024-01-16T18:17:52;114.32;;;38.38;;
76196;SDS011;64974;53.144;17.962;2024-01-16T18:20:26;112.05;;;36.15;;
76196;SDS011;64974;53.144;17.962;2024-01-16T18:29:22;82.97;;;29.77;;
76196;SDS011;64974;53.144;17.962;2024-01-16T18:41:55;49.85;;;18.77;;
76196;SDS011;64974;53.144;17.962;2024-01-16T18:51:52;49.45;;;19.08;;
76196;SDS011;64974;53.144;17.962;2024-01-16T18:54:25;55.33;;;21.27;;
76196;SDS011;64974;53.144;17.962;2024-01-16T18:59:49;128.07;;;45.75;;
76196;SDS011;64974;53.144;17.962;2024-01-16T19:02:19;114.18;;;44.83;;
76196;SDS011;64974;53.144;17.962;2024-01-16T19:04:49;135.32;;;50.00;;
76196;SDS011;64974;53.144;17.962;2024-01-16T19:07:18;140.82;;;49.90;;
76196;SDS011;64974;53.144;17.962;2024-01-16T19:09:52;112.72;;;43.08;;
76196;SDS011;64974;53.144;17.962;2024-01-16T19:12:31;99.85;;;36.75;;
76196;SDS011;64974;53.144;17.962;2024-01-16T19:18:30;64.50;;;22.58;;
76196;SDS011;64974;53.144;17.962;2024-01-16T19:21:13;86.22;;;31.63;;
76196;SDS011;64974;53.144;17.962;2024-01-16T19:23:43;97.50;;;36.28;;
76196;SDS011;64974;53.144;17.962;2024-01-16T19:26:24;104.60;;;33.75;;
76196;SDS011;64974;53.144;17.962;2024-01-16T19:29:04;111.65;;;36.35;;
76196;SDS011;64974;53.144;17.962;2024-01-16T19:35:35;68.50;;;23.08;;
76196;SDS011;64974;53.144;17.962;2024-01-16T19:38:15;46.45;;;13.27;;
76196;SDS011;64974;53.144;17.962;2024-01-16T19:40:57;28.60;;;10.40;;
76196;SDS011;64974;53.144;17.962;2024-01-16T19:43:32;33.20;;;11.98;;
76196;SDS011;64974;53.144;17.962;2024-01-16T20:00:01;32.28;;;11.15;;
76196;SDS011;64974;53.144;17.962;2024-01-16T20:03:27;23.17;;;7.32;;
76196;SDS011;64974;53.144;17.962;2024-01-16T20:06:12;27.60;;;10.27;;
76196;SDS011;64974;53.144;17.962;2024-01-16T20:09:00;29.02;;;9.65;;
76196;SDS011;64974;53.144;17.962;2024-01-16T20:11:42;71.50;;;20.45;;
76196;SDS011;64974;53.144;17.962;2024-01-16T20:17:45;36.25;;;10.85;;
76196;SDS011;64974;53.144;17.962;2024-01-16T20:20:40;34.25;;;10.63;;
76196;SDS011;64974;53.144;17.962;2024-01-16T20:23:29;37.83;;;10.93;;
76196;SDS011;64974;53.144;17.962;2024-01-16T20:32:10;40.15;;;21.67;;
76196;SDS011;64974;53.144;17.962;2024-01-16T20:55:52;31.15;;;13.10;;
76196;SDS011;64974;53.144;17.962;2024-01-16T20:58:19;26.48;;;9.75;;
76196;SDS011;64974;53.144;17.962;2024-01-16T21:00:45;23.98;;;8.52;;
76196;SDS011;64974;53.144;17.962;2024-01-16T21:03:12;24.88;;;8.82;;
76196;SDS011;64974;53.144;17.962;2024-01-16T21:05:43;21.08;;;9.75;;
76196;SDS011;64974;53.144;17.962;2024-01-16T21:08:13;20.00;;;8.13;;
76196;SDS011;64974;53.144;17.962;2024-01-16T21:11:15;19.30;;;8.65;;
76196;SDS011;64974;53.144;17.962;2024-01-16T21:13:41;24.23;;;7.80;;
76196;SDS011;64974;53.144;17.962;2024-01-16T21:19:35;27.92;;;11.80;;
76196;SDS011;64974;53.144;17.962;2024-01-16T21:25:25;14.90;;;7.22;;
76196;SDS011;64974;53.144;17.962;2024-01-16T22:18:28;21.35;;;8.98;;
76196;SDS011;64974;53.144;17.962;2024-01-16T22:27:04;15.25;;;8.48;;
76196;SDS011;64974;53.144;17.962;2024-01-16T22:29:33;20.23;;;8.73;;
76196;SDS011;64974;53.144;17.962;2024-01-16T23:09:34;22.55;;;8.30;;
76196;SDS011;64974;53.144;17.962;2024-01-16T23:16:01;20.95;;;8.27;;
76196;SDS011;64974;53.144;17.962;2024-01-16T23:22:00;20.63;;;8.32;;
76196;SDS011;64974;53.144;17.962;2024-01-16T23:38:00;23.27;;;7.32;;
